Costa Diadema — IBCX — position and weather

sailwx.info

Track history (hours):
 
Tides and Currents Weather Stations Pressure Air Temp Water Temp Dewpoint Dewpoint Depression Visibility Wind Speed Wind Dir Waves Ship Positions

Costa Diadema

Last reported at 2018-Aug-14 06:30 UTC. Time now 2018-Aug-14 06:59 UTC.
Position N 39°33' E 002°38'.

Length 304 m; draft 8.5 m.

Type: Passenger vessel. MMSI: 247353700.

Date/timePositionNaut miles runAvg speedWind from/ knotsBaromVisibWave heightAir tempDewpointWater temp
2018-Aug-14 06:30N 39°33' E 002°38'3 5.3
2018-Aug-14 06:00N 39°31' E 002°38'510.5
2018-Aug-14 05:29N 39°26' E 002°34'510.0
2018-Aug-14 04:59N 39°24' E 002°28'611.2
2018-Aug-14 04:30N 39°28' E 002°22'3910.9
2018-Aug-14 00:54N 40°06' E 002°13'4910.7
2018-Aug-13 20:22N 40°55' E 002°12'410.8
2018-Aug-13 19:59N 40°59' E 002°11'510.7
2018-Aug-13 19:30N 41°04' E 002°11'510.4
2018-Aug-13 19:00N 41°09' E 002°11'510.2
2018-Aug-13 18:30N 41°14' E 002°11'510.1
2018-Aug-13 18:00N 41°19' E 002°10'2 3.2
2018-Aug-13 17:29N 41°21' E 002°10'0 0.0
2018-Aug-13 16:59N 41°21' E 002°10'0 0.0
2018-Aug-13 16:29N 41°21' E 002°10'0 0.0
2018-Aug-13 15:59N 41°21' E 002°10'0 0.0
2018-Aug-13 15:29N 41°21' E 002°10'0 0.0
2018-Aug-13 14:59N 41°21' E 002°10'0 0.0
2018-Aug-13 14:29N 41°21' E 002°10'0 0.0
2018-Aug-13 13:59N 41°21' E 002°10'0 0.0
2018-Aug-13 13:29N 41°21' E 002°10'0 0.0
2018-Aug-13 12:59N 41°21' E 002°10'0 0.0
2018-Aug-13 12:29N 41°21' E 002°10'0 0.0
2018-Aug-13 11:58N 41°21' E 002°10'0 0.0
2018-Aug-13 11:28N 41°21' E 002°10'0 0.0
2018-Aug-13 10:58N 41°21' E 002°10'0 0.0
2018-Aug-13 10:28N 41°21' E 002°10'0 0.0
2018-Aug-13 09:58N 41°21' E 002°10'0 0.0
2018-Aug-13 09:27N 41°21' E 002°10'0 0.0
2018-Aug-13 08:51N 41°21' E 002°10'0 0.0
2018-Aug-13 08:27N 41°21' E 002°10'0 0.0
2018-Aug-13 07:57N 41°21' E 002°10'0 0.0
2018-Aug-13 07:27N 41°21' E 002°10'0 0.0
2018-Aug-13 06:58N 41°21' E 002°10'0 0.9
2018-Aug-13 06:30N 41°21' E 002°10'3 5.8
2018-Aug-13 06:01N 41°18' E 002°11'611.9
2018-Aug-13 05:31N 41°16' E 002°18'816.5
2018-Aug-13 05:00N 41°21' E 002°28'916.7
2018-Aug-13 04:28N 41°26' E 002°37'14212.8
2018-Aug-12 17:22N 43°02' E 004°57'512.0
2018-Aug-12 16:59N 43°06' E 005°01'612.0
2018-Aug-12 16:30N 43°11' E 005°05'612.0
2018-Aug-12 16:00N 43°16' E 005°09'611.4
2018-Aug-12 15:29N 43°19' E 005°16'3 5.7
2018-Aug-12 14:57N 43°21' E 005°20'0 0.0
2018-Aug-12 14:27N 43°21' E 005°20'0 0.0
2018-Aug-12 13:57N 43°21' E 005°20'0 0.0
2018-Aug-12 13:27N 43°21' E 005°20'0 0.0
2018-Aug-12 12:57N 43°21' E 005°20'0 0.0
2018-Aug-12 12:27N 43°21' E 005°20'0 0.0
2018-Aug-12 11:57N 43°21' E 005°20'0 0.0
2018-Aug-12 11:27N 43°21' E 005°20'0 0.0
2018-Aug-12 10:57N 43°21' E 005°20'0 0.0
2018-Aug-12 10:27N 43°21' E 005°20'0 0.0
2018-Aug-12 09:57N 43°21' E 005°20'0 0.0
2018-Aug-12 09:27N 43°21' E 005°20'0 0.0
2018-Aug-12 08:57N 43°21' E 005°20'0 0.0
2018-Aug-12 08:27N 43°21' E 005°20'0 0.0
2018-Aug-12 07:57N 43°21' E 005°20'0 0.0
2018-Aug-12 07:27N 43°21' E 005°20'0 0.0
2018-Aug-12 06:57N 43°21' E 005°20'0 0.0
2018-Aug-12 06:27N 43°21' E 005°20'0 0.3
2018-Aug-12 06:00N 43°21' E 005°20'2 4.1
2018-Aug-12 05:30N 43°21' E 005°17'510.7
2018-Aug-12 05:00N 43°17' E 005°12'714.1
2018-Aug-12 04:30N 43°10' E 005°15'1216.7
2018-Aug-12 03:46N 43°06' E 005°30'617.0
2018-Aug-12 03:26N 43°03' E 005°38'916.9
2018-Aug-12 02:53N 43°01' E 005°50'716.9
2018-Aug-12 02:30N 42°59' E 005°58'816.9
2018-Aug-12 02:00N 42°57' E 006°09'817.0
2018-Aug-12 01:30N 42°57' E 006°21'917.6
2018-Aug-12 01:00N 42°57' E 006°33'917.4
2018-Aug-12 00:30N 43°02' E 006°43'917.7
2018-Aug-12 00:00N 43°07' E 006°53'917.6
2018-Aug-11 23:30N 43°12' E 007°02'917.3
2018-Aug-11 23:00N 43°18' E 007°12'713.8
2018-Aug-11 22:30N 43°22' E 007°19'713.5
2018-Aug-11 22:00N 43°26' E 007°27'713.3
2018-Aug-11 21:30N 43°30' E 007°34'713.1
2018-Aug-11 21:00N 43°34' E 007°41'713.0
2018-Aug-11 20:30N 43°38' E 007°49'612.9
2018-Aug-11 20:00N 43°42' E 007°56'713.0
2018-Aug-11 19:30N 43°46' E 008°02'613.0
2018-Aug-11 19:00N 43°50' E 008°10'713.2
2018-Aug-11 18:30N 43°55' E 008°15'613.0
2018-Aug-11 18:00N 44°00' E 008°20'712.9
2018-Aug-11 17:30N 44°06' E 008°24'713.2
2018-Aug-11 17:01N 44°12' E 008°29'612.1
2018-Aug-11 16:30N 44°18' E 008°31'2 3.4
2018-Aug-11 15:58N 44°19' E 008°29'0 0.0
2018-Aug-11 15:28N 44°19' E 008°29'0 0.0
2018-Aug-11 14:58N 44°19' E 008°29'0 0.0
2018-Aug-11 14:28N 44°19' E 008°29'0 0.0
2018-Aug-11 13:58N 44°19' E 008°29'0 0.0
2018-Aug-11 13:25N 44°19' E 008°29'0 0.0
2018-Aug-11 12:55N 44°19' E 008°29'0 0.0
2018-Aug-11 12:28N 44°19' E 008°29'0 0.0
2018-Aug-11 11:58N 44°19' E 008°29'0 0.0
2018-Aug-11 11:28N 44°19' E 008°29'0 0.0
2018-Aug-11 10:58N 44°19' E 008°29'0 0.0
2018-Aug-11 10:28N 44°19' E 008°29'0 0.0
2018-Aug-11 09:58N 44°19' E 008°29'0 0.0
2018-Aug-11 09:28N 44°19' E 008°29'0 0.0
2018-Aug-11 08:55N 44°19' E 008°29'0 0.0
2018-Aug-11 08:28N 44°19' E 008°29'0 0.0
2018-Aug-11 07:58N 44°19' E 008°29'0 0.0
2018-Aug-11 07:28N 44°19' E 008°29'0 0.0
2018-Aug-11 06:58N 44°19' E 008°29'0 0.0
2018-Aug-11 06:28N 44°19' E 008°29'0 0.0
2018-Aug-11 05:55N 44°19' E 008°29'0 0.6
2018-Aug-11 05:30N 44°19' E 008°30'2 3.6
2018-Aug-11 05:01N 44°18' E 008°32'714.7
2018-Aug-11 04:30N 44°12' E 008°37'917.1
2018-Aug-11 04:00N 44°05' E 008°44'918.8
2018-Aug-11 03:30N 43°57' E 008°51'918.9
2018-Aug-11 03:00N 43°49' E 008°58'918.9
2018-Aug-11 02:30N 43°41' E 009°05'1019.1
2018-Aug-11 02:00N 43°33' E 009°12'1019.1
2018-Aug-11 01:30N 43°25' E 009°19'918.6
2018-Aug-11 01:00N 43°17' E 009°25'918.3
2018-Aug-11 00:30N 43°10' E 009°33'918.3
2018-Aug-11 00:00N 43°01' E 009°38'918.3
2018-Aug-10 23:29N 42°52' E 009°42'918.1
2018-Aug-10 23:00N 42°48' E 009°52'917.5
2018-Aug-10 22:29N 42°43' E 010°03'4717.4
2018-Aug-10 19:45N 42°13' E 010°52'517.3
2018-Aug-10 19:29N 42°10' E 010°57'1017.0
2018-Aug-10 18:53N 42°07' E 011°10'717.4
2018-Aug-10 18:30N 42°06' E 011°19'18 1.2
2018-Aug-10 04:11N 41°53' E 011°34'618.4
2018-Aug-10 03:51N 41°47' E 011°31'718.5
2018-Aug-10 03:27N 41°40' E 011°27'918.7
2018-Aug-10 02:59N 41°33' E 011°22'1018.7
2018-Aug-10 02:29N 41°24' E 011°17'918.5
2018-Aug-10 02:00N 41°16' E 011°11'3218.5
2018-Aug-10 00:18N 40°47' E 010°53'718.5
2018-Aug-09 23:54N 40°41' E 010°49'818.3
2018-Aug-09 23:27N 40°33' E 010°45'1217.8
2018-Aug-09 22:48N 40°23' E 010°38'517.6
2018-Aug-09 22:30N 40°18' E 010°35'339 8.0
2018-Aug-08 04:12N 39°02' E 003°26'211.0
2018-Aug-08 04:00N 39°02' E 003°24'611.4
2018-Aug-08 03:30N 39°02' E 003°16'611.6
2018-Aug-08 03:00N 39°03' E 003°09'611.6
2018-Aug-08 02:30N 39°03' E 003°01'611.7
2018-Aug-08 02:00N 39°04' E 002°54'510.9
2018-Aug-08 01:30N 39°08' E 002°49'611.7
2018-Aug-08 01:00N 39°13' E 002°46'611.7
2018-Aug-08 00:30N 39°19' E 002°44'611.5
2018-Aug-08 00:00N 39°24' E 002°41'611.8
2018-Aug-07 23:30N 39°30' E 002°39'3 6.8
2018-Aug-07 23:00N 39°33' E 002°38'0 0.1
2018-Aug-07 22:30N 39°33' E 002°38'0 0.0
2018-Aug-07 22:00N 39°33' E 002°38'0 0.0
2018-Aug-07 21:30N 39°33' E 002°38'0 0.0
2018-Aug-07 21:00N 39°33' E 002°38'0 0.0
2018-Aug-07 20:30N 39°33' E 002°38'0 0.0
2018-Aug-07 20:00N 39°33' E 002°38'0 0.0
2018-Aug-07 19:30N 39°33' E 002°38'0 0.0
2018-Aug-07 19:00N 39°33' E 002°38'0 0.0
2018-Aug-07 18:30N 39°33' E 002°38'0 0.0
2018-Aug-07 18:00N 39°33' E 002°38'0 0.0
2018-Aug-07 17:30N 39°33' E 002°38'0 0.0
2018-Aug-07 17:00N 39°33' E 002°38'0 0.0
2018-Aug-07 16:30N 39°33' E 002°38'0 0.0
2018-Aug-07 15:57N 39°33' E 002°38'0 0.0
2018-Aug-07 15:30N 39°33' E 002°38'0 0.0
2018-Aug-07 15:00N 39°33' E 002°38'0 0.0
2018-Aug-07 14:30N 39°33' E 002°38'0 0.0
2018-Aug-07 14:00N 39°33' E 002°38'0 0.0
2018-Aug-07 13:30N 39°33' E 002°38'0 0.0
2018-Aug-07 13:00N 39°33' E 002°38'0 0.0
2018-Aug-07 12:30N 39°33' E 002°38'0 0.0
2018-Aug-07 12:00N 39°33' E 002°38'0 0.0
2018-Aug-07 11:30N 39°33' E 002°38'0 0.0
2018-Aug-07 10:59N 39°33' E 002°38'0 0.0
2018-Aug-07 10:30N 39°33' E 002°38'0 0.0
2018-Aug-07 10:00N 39°33' E 002°38'0 0.0
2018-Aug-07 09:30N 39°33' E 002°38'0 0.0
2018-Aug-07 09:00N 39°33' E 002°38'0 0.0
2018-Aug-07 08:30N 39°33' E 002°38'0 0.0
2018-Aug-07 08:00N 39°33' E 002°38'0 0.0
2018-Aug-07 07:30N 39°33' E 002°38'0 0.0
2018-Aug-07 07:00N 39°33' E 002°38'0 0.8
2018-Aug-07 06:30N 39°33' E 002°38'2 4.2
2018-Aug-07 06:00N 39°31' E 002°38'511.1
2018-Aug-07 05:30N 39°27' E 002°35'610.8
2018-Aug-07 05:00N 39°25' E 002°28'611.2
2018-Aug-07 04:30N 39°28' E 002°22'4011.5
2018-Aug-07 01:01N 40°08' E 002°13'112.1
2018-Aug-07 00:57N 40°09' E 002°13'2110.9
2018-Aug-06 23:04N 40°29' E 002°12'1 8.4
2018-Aug-06 22:57N 40°30' E 002°12'24 8.5
2018-Aug-06 20:06N 40°55' E 002°11'1 9.4
2018-Aug-06 20:00N 40°55' E 002°11'5 9.3
2018-Aug-06 19:30N 41°00' E 002°11'5 9.3
2018-Aug-06 19:00N 41°05' E 002°11'5 9.0
2018-Aug-06 18:30N 41°09' E 002°11'4 9.0
2018-Aug-06 18:00N 41°14' E 002°11'5 9.3
2018-Aug-06 17:30N 41°18' E 002°10'3 5.2
2018-Aug-06 16:59N 41°21' E 002°10'0 0.0
2018-Aug-06 16:29N 41°21' E 002°10'0 0.0
2018-Aug-06 15:59N 41°21' E 002°10'0 0.0
2018-Aug-06 15:29N 41°21' E 002°10'0 0.0
2018-Aug-06 14:59N 41°21' E 002°10'0 0.0
2018-Aug-06 14:29N 41°21' E 002°10'0 0.0
2018-Aug-06 13:59N 41°21' E 002°10'0 0.0
2018-Aug-06 13:29N 41°21' E 002°10'0 0.0
2018-Aug-06 12:59N 41°21' E 002°10'0 0.0
2018-Aug-06 12:29N 41°21' E 002°10'0 0.0
2018-Aug-06 11:59N 41°21' E 002°10'0 0.0
2018-Aug-06 11:29N 41°21' E 002°10'0 0.0
2018-Aug-06 10:59N 41°21' E 002°10'0 0.0
2018-Aug-06 10:29N 41°21' E 002°10'0 0.0
2018-Aug-06 09:59N 41°21' E 002°10'0 0.0
2018-Aug-06 09:29N 41°21' E 002°10'0 0.0
2018-Aug-06 08:59N 41°21' E 002°10'0 0.0
2018-Aug-06 08:29N 41°21' E 002°10'0 0.0
2018-Aug-06 07:59N 41°21' E 002°10'0 0.0
2018-Aug-06 07:29N 41°21' E 002°10'0 0.0
2018-Aug-06 06:59N 41°21' E 002°10'1 1.0
2018-Aug-06 06:30N 41°21' E 002°10'3 5.6
2018-Aug-06 06:00N 41°18' E 002°11'510.2
2018-Aug-06 05:30N 41°16' E 002°17'815.7
2018-Aug-06 05:00N 41°20' E 002°26'714.2
2018-Aug-06 04:30N 41°24' E 002°33'613.0
2018-Aug-06 04:00N 41°28' E 002°40'713.2
2018-Aug-06 03:30N 41°32' E 002°48'713.4
2018-Aug-06 03:00N 41°36' E 002°55'713.7
2018-Aug-06 02:30N 41°40' E 003°03'713.7
2018-Aug-06 02:00N 41°44' E 003°10'713.5
2018-Aug-06 01:30N 41°48' E 003°17'1013.6
2018-Aug-06 00:45N 41°55' E 003°27'314.0
2018-Aug-06 00:30N 41°58' E 003°30'5713.6
2018-Aug-05 20:20N 42°38' E 004°24'412.5
2018-Aug-05 20:01N 42°41' E 004°28'612.4
2018-Aug-05 19:30N 42°45' E 004°34'612.4
2018-Aug-05 19:00N 42°50' E 004°40'612.4
2018-Aug-05 18:30N 42°54' E 004°46'612.5
2018-Aug-05 18:00N 42°58' E 004°52'612.5
2018-Aug-05 17:30N 43°03' E 004°58'612.4
2018-Aug-05 17:00N 43°08' E 005°03'612.2
2018-Aug-05 16:31N 43°13' E 005°07'611.7
2018-Aug-05 16:00N 43°18' E 005°12'510.8
2018-Aug-05 15:30N 43°21' E 005°18'1 2.2
2018-Aug-05 14:59N 43°21' E 005°20'0 0.0
2018-Aug-05 14:29N 43°21' E 005°20'0 0.0
2018-Aug-05 13:29N 43°21' E 005°20'0 0.0
2018-Aug-05 12:59N 43°21' E 005°20'0 0.0
2018-Aug-05 12:29N 43°21' E 005°20'0 0.0
2018-Aug-05 11:59N 43°21' E 005°20'0 0.0
2018-Aug-05 11:29N 43°21' E 005°20'0 0.0
2018-Aug-05 10:56N 43°21' E 005°20'0 0.0
2018-Aug-05 10:26N 43°21' E 005°20'0 0.0
2018-Aug-05 09:56N 43°21' E 005°20'0 0.0
2018-Aug-05 09:29N 43°21' E 005°20'0 0.0
2018-Aug-05 08:59N 43°21' E 005°20'0 0.0
2018-Aug-05 08:29N 43°21' E 005°20'0 0.0
2018-Aug-05 07:59N 43°21' E 005°20'0 0.0
2018-Aug-05 07:29N 43°21' E 005°20'0 0.0
2018-Aug-05 06:59N 43°21' E 005°20'0 0.0
2018-Aug-05 06:29N 43°21' E 005°20'0 0.0
2018-Aug-05 06:01N 43°21' E 005°20'1 3.0
2018-Aug-05 05:31N 43°21' E 005°18'5 9.7
2018-Aug-05 05:00N 43°18' E 005°13'714.0
2018-Aug-05 04:30N 43°11' E 005°12'3717.1
2018-Aug-05 02:19N 42°58' E 006°00'617.6
2018-Aug-05 02:00N 42°57' E 006°08'917.6
2018-Aug-05 01:30N 42°57' E 006°20'1917.2
2018-Aug-05 00:23N 43°03' E 006°45'817.9
2018-Aug-04 23:56N 43°08' E 006°53'817.8
2018-Aug-04 23:30N 43°12' E 007°02'917.4
2018-Aug-04 23:00N 43°18' E 007°11'917.4
2018-Aug-04 22:30N 43°23' E 007°21'917.1
2018-Aug-04 22:00N 43°28' E 007°30'816.8
2018-Aug-04 21:30N 43°33' E 007°39'713.4
2018-Aug-04 21:00N 43°37' E 007°47'713.3
2018-Aug-04 20:30N 43°41' E 007°54'713.1
2018-Aug-04 20:00N 43°45' E 008°01'613.0
2018-Aug-04 19:30N 43°49' E 008°08'612.8
2018-Aug-04 19:00N 43°54' E 008°14'612.5
2018-Aug-04 18:30N 43°59' E 008°18'612.2
2018-Aug-04 18:00N 44°04' E 008°23'612.0
2018-Aug-04 17:30N 44°09' E 008°28'612.0
2018-Aug-04 17:00N 44°15' E 008°31'4 8.7
2018-Aug-04 16:31N 44°19' E 008°30'1 1.8
2018-Aug-04 16:00N 44°19' E 008°29'0 0.0
2018-Aug-04 15:30N 44°19' E 008°29'0 0.0
2018-Aug-04 15:00N 44°19' E 008°29'0 0.0
2018-Aug-04 14:30N 44°19' E 008°29'0 0.0
2018-Aug-04 14:00N 44°19' E 008°29'0 0.0
2018-Aug-04 13:30N 44°19' E 008°29'0 0.0
2018-Aug-04 13:00N 44°19' E 008°29'0 0.0
2018-Aug-04 12:30N 44°19' E 008°29'0 0.0
2018-Aug-04 12:00N 44°19' E 008°29'0 0.0
2018-Aug-04 11:30N 44°19' E 008°29'0 0.0
2018-Aug-04 11:00N 44°19' E 008°29'0 0.0
2018-Aug-04 10:30N 44°19' E 008°29'0 0.0
2018-Aug-04 10:00N 44°19' E 008°29'0 0.0
2018-Aug-04 09:30N 44°19' E 008°29'0 0.0
2018-Aug-04 09:00N 44°19' E 008°29'0 0.0
2018-Aug-04 08:30N 44°19' E 008°29'0 0.0
2018-Aug-04 08:00N 44°19' E 008°29'0 0.0
2018-Aug-04 07:30N 44°19' E 008°29'0 0.0
2018-Aug-04 07:00N 44°19' E 008°29'0 0.0
2018-Aug-04 06:30N 44°19' E 008°29'  
Track history (hours):
 
Tides and Currents Weather Stations Pressure Air Temp Water Temp Dewpoint Dewpoint Depression Visibility Wind Speed Wind Dir Waves Ship Positions

Costa Diadema

Last reported at 2018-Aug-14 06:30 UTC. Time now 2018-Aug-14 06:59 UTC.
Position N 39°33' E 002°38'.

Length 304 m; draft 8.5 m.

Type: Passenger vessel. MMSI: 247353700.

Date/timePositionNaut miles runAvg speedWind from/ knotsBaromVisibWave heightAir tempDewpointWater temp
2018-Aug-14 06:30N 39°33' E 002°38'3 5.3
2018-Aug-14 06:00N 39°31' E 002°38'510.5
2018-Aug-14 05:29N 39°26' E 002°34'510.0
2018-Aug-14 04:59N 39°24' E 002°28'611.2
2018-Aug-14 04:30N 39°28' E 002°22'3910.9
2018-Aug-14 00:54N 40°06' E 002°13'4910.7
2018-Aug-13 20:22N 40°55' E 002°12'410.8
2018-Aug-13 19:59N 40°59' E 002°11'510.7
2018-Aug-13 19:30N 41°04' E 002°11'510.4
2018-Aug-13 19:00N 41°09' E 002°11'510.2
2018-Aug-13 18:30N 41°14' E 002°11'510.1
2018-Aug-13 18:00N 41°19' E 002°10'2 3.2
2018-Aug-13 17:29N 41°21' E 002°10'0 0.0
2018-Aug-13 16:59N 41°21' E 002°10'0 0.0
2018-Aug-13 16:29N 41°21' E 002°10'0 0.0
2018-Aug-13 15:59N 41°21' E 002°10'0 0.0
2018-Aug-13 15:29N 41°21' E 002°10'0 0.0
2018-Aug-13 14:59N 41°21' E 002°10'0 0.0
2018-Aug-13 14:29N 41°21' E 002°10'0 0.0
2018-Aug-13 13:59N 41°21' E 002°10'0 0.0
2018-Aug-13 13:29N 41°21' E 002°10'0 0.0
2018-Aug-13 12:59N 41°21' E 002°10'0 0.0
2018-Aug-13 12:29N 41°21' E 002°10'0 0.0
2018-Aug-13 11:58N 41°21' E 002°10'0 0.0
2018-Aug-13 11:28N 41°21' E 002°10'0 0.0
2018-Aug-13 10:58N 41°21' E 002°10'0 0.0
2018-Aug-13 10:28N 41°21' E 002°10'0 0.0
2018-Aug-13 09:58N 41°21' E 002°10'0 0.0
2018-Aug-13 09:27N 41°21' E 002°10'0 0.0
2018-Aug-13 08:51N 41°21' E 002°10'0 0.0
2018-Aug-13 08:27N 41°21' E 002°10'0 0.0
2018-Aug-13 07:57N 41°21' E 002°10'0 0.0
2018-Aug-13 07:27N 41°21' E 002°10'0 0.0
2018-Aug-13 06:58N 41°21' E 002°10'0 0.9
2018-Aug-13 06:30N 41°21' E 002°10'3 5.8
2018-Aug-13 06:01N 41°18' E 002°11'611.9
2018-Aug-13 05:31N 41°16' E 002°18'816.5
2018-Aug-13 05:00N 41°21' E 002°28'916.7
2018-Aug-13 04:28N 41°26' E 002°37'14212.8
2018-Aug-12 17:22N 43°02' E 004°57'512.0
2018-Aug-12 16:59N 43°06' E 005°01'612.0
2018-Aug-12 16:30N 43°11' E 005°05'612.0
2018-Aug-12 16:00N 43°16' E 005°09'611.4
2018-Aug-12 15:29N 43°19' E 005°16'3 5.7
2018-Aug-12 14:57N 43°21' E 005°20'0 0.0
2018-Aug-12 14:27N 43°21' E 005°20'0 0.0
2018-Aug-12 13:57N 43°21' E 005°20'0 0.0
2018-Aug-12 13:27N 43°21' E 005°20'0 0.0
2018-Aug-12 12:57N 43°21' E 005°20'0 0.0
2018-Aug-12 12:27N 43°21' E 005°20'0 0.0
2018-Aug-12 11:57N 43°21' E 005°20'0 0.0
2018-Aug-12 11:27N 43°21' E 005°20'0 0.0
2018-Aug-12 10:57N 43°21' E 005°20'0 0.0
2018-Aug-12 10:27N 43°21' E 005°20'0 0.0
2018-Aug-12 09:57N 43°21' E 005°20'0 0.0
2018-Aug-12 09:27N 43°21' E 005°20'0 0.0
2018-Aug-12 08:57N 43°21' E 005°20'0 0.0
2018-Aug-12 08:27N 43°21' E 005°20'0 0.0
2018-Aug-12 07:57N 43°21' E 005°20'0 0.0
2018-Aug-12 07:27N 43°21' E 005°20'0 0.0
2018-Aug-12 06:57N 43°21' E 005°20'0 0.0
2018-Aug-12 06:27N 43°21' E 005°20'0 0.3
2018-Aug-12 06:00N 43°21' E 005°20'2 4.1
2018-Aug-12 05:30N 43°21' E 005°17'510.7
2018-Aug-12 05:00N 43°17' E 005°12'714.1
2018-Aug-12 04:30N 43°10' E 005°15'1216.7
2018-Aug-12 03:46N 43°06' E 005°30'617.0
2018-Aug-12 03:26N 43°03' E 005°38'916.9
2018-Aug-12 02:53N 43°01' E 005°50'716.9
2018-Aug-12 02:30N 42°59' E 005°58'816.9
2018-Aug-12 02:00N 42°57' E 006°09'817.0
2018-Aug-12 01:30N 42°57' E 006°21'917.6
2018-Aug-12 01:00N 42°57' E 006°33'917.4
2018-Aug-12 00:30N 43°02' E 006°43'917.7
2018-Aug-12 00:00N 43°07' E 006°53'917.6
2018-Aug-11 23:30N 43°12' E 007°02'917.3
2018-Aug-11 23:00N 43°18' E 007°12'713.8
2018-Aug-11 22:30N 43°22' E 007°19'713.5
2018-Aug-11 22:00N 43°26' E 007°27'713.3
2018-Aug-11 21:30N 43°30' E 007°34'713.1
2018-Aug-11 21:00N 43°34' E 007°41'713.0
2018-Aug-11 20:30N 43°38' E 007°49'612.9
2018-Aug-11 20:00N 43°42' E 007°56'713.0
2018-Aug-11 19:30N 43°46' E 008°02'613.0
2018-Aug-11 19:00N 43°50' E 008°10'713.2
2018-Aug-11 18:30N 43°55' E 008°15'613.0
2018-Aug-11 18:00N 44°00' E 008°20'712.9
2018-Aug-11 17:30N 44°06' E 008°24'713.2
2018-Aug-11 17:01N 44°12' E 008°29'612.1
2018-Aug-11 16:30N 44°18' E 008°31'2 3.4
2018-Aug-11 15:58N 44°19' E 008°29'0 0.0
2018-Aug-11 15:28N 44°19' E 008°29'0 0.0
2018-Aug-11 14:58N 44°19' E 008°29'0 0.0
2018-Aug-11 14:28N 44°19' E 008°29'0 0.0
2018-Aug-11 13:58N 44°19' E 008°29'0 0.0
2018-Aug-11 13:25N 44°19' E 008°29'0 0.0
2018-Aug-11 12:55N 44°19' E 008°29'0 0.0
2018-Aug-11 12:28N 44°19' E 008°29'0 0.0
2018-Aug-11 11:58N 44°19' E 008°29'0 0.0
2018-Aug-11 11:28N 44°19' E 008°29'0 0.0
2018-Aug-11 10:58N 44°19' E 008°29'0 0.0
2018-Aug-11 10:28N 44°19' E 008°29'0 0.0
2018-Aug-11 09:58N 44°19' E 008°29'0 0.0
2018-Aug-11 09:28N 44°19' E 008°29'0 0.0
2018-Aug-11 08:55N 44°19' E 008°29'0 0.0
2018-Aug-11 08:28N 44°19' E 008°29'0 0.0
2018-Aug-11 07:58N 44°19' E 008°29'0 0.0
2018-Aug-11 07:28N 44°19' E 008°29'0 0.0
2018-Aug-11 06:58N 44°19' E 008°29'0 0.0
2018-Aug-11 06:28N 44°19' E 008°29'0 0.0
2018-Aug-11 05:55N 44°19' E 008°29'0 0.6
2018-Aug-11 05:30N 44°19' E 008°30'2 3.6
2018-Aug-11 05:01N 44°18' E 008°32'714.7
2018-Aug-11 04:30N 44°12' E 008°37'917.1
2018-Aug-11 04:00N 44°05' E 008°44'918.8
2018-Aug-11 03:30N 43°57' E 008°51'918.9
2018-Aug-11 03:00N 43°49' E 008°58'918.9
2018-Aug-11 02:30N 43°41' E 009°05'1019.1
2018-Aug-11 02:00N 43°33' E 009°12'1019.1
2018-Aug-11 01:30N 43°25' E 009°19'918.6
2018-Aug-11 01:00N 43°17' E 009°25'918.3
2018-Aug-11 00:30N 43°10' E 009°33'918.3
2018-Aug-11 00:00N 43°01' E 009°38'918.3
2018-Aug-10 23:29N 42°52' E 009°42'918.1
2018-Aug-10 23:00N 42°48' E 009°52'917.5
2018-Aug-10 22:29N 42°43' E 010°03'4717.4
2018-Aug-10 19:45N 42°13' E 010°52'517.3
2018-Aug-10 19:29N 42°10' E 010°57'1017.0
2018-Aug-10 18:53N 42°07' E 011°10'717.4
2018-Aug-10 18:30N 42°06' E 011°19'18 1.2
2018-Aug-10 04:11N 41°53' E 011°34'618.4
2018-Aug-10 03:51N 41°47' E 011°31'718.5
2018-Aug-10 03:27N 41°40' E 011°27'918.7
2018-Aug-10 02:59N 41°33' E 011°22'1018.7
2018-Aug-10 02:29N 41°24' E 011°17'918.5
2018-Aug-10 02:00N 41°16' E 011°11'3218.5
2018-Aug-10 00:18N 40°47' E 010°53'718.5
2018-Aug-09 23:54N 40°41' E 010°49'818.3
2018-Aug-09 23:27N 40°33' E 010°45'1217.8
2018-Aug-09 22:48N 40°23' E 010°38'517.6
2018-Aug-09 22:30N 40°18' E 010°35'339 8.0
2018-Aug-08 04:12N 39°02' E 003°26'211.0
2018-Aug-08 04:00N 39°02' E 003°24'611.4
2018-Aug-08 03:30N 39°02' E 003°16'611.6
2018-Aug-08 03:00N 39°03' E 003°09'611.6
2018-Aug-08 02:30N 39°03' E 003°01'611.7
2018-Aug-08 02:00N 39°04' E 002°54'510.9
2018-Aug-08 01:30N 39°08' E 002°49'611.7
2018-Aug-08 01:00N 39°13' E 002°46'611.7
2018-Aug-08 00:30N 39°19' E 002°44'611.5
2018-Aug-08 00:00N 39°24' E 002°41'611.8
2018-Aug-07 23:30N 39°30' E 002°39'3 6.8
2018-Aug-07 23:00N 39°33' E 002°38'0 0.1
2018-Aug-07 22:30N 39°33' E 002°38'0 0.0
2018-Aug-07 22:00N 39°33' E 002°38'0 0.0
2018-Aug-07 21:30N 39°33' E 002°38'0 0.0
2018-Aug-07 21:00N 39°33' E 002°38'0 0.0
2018-Aug-07 20:30N 39°33' E 002°38'0 0.0
2018-Aug-07 20:00N 39°33' E 002°38'0 0.0
2018-Aug-07 19:30N 39°33' E 002°38'0 0.0
2018-Aug-07 19:00N 39°33' E 002°38'0 0.0
2018-Aug-07 18:30N 39°33' E 002°38'0 0.0
2018-Aug-07 18:00N 39°33' E 002°38'0 0.0
2018-Aug-07 17:30N 39°33' E 002°38'0 0.0
2018-Aug-07 17:00N 39°33' E 002°38'0 0.0
2018-Aug-07 16:30N 39°33' E 002°38'0 0.0
2018-Aug-07 15:57N 39°33' E 002°38'0 0.0
2018-Aug-07 15:30N 39°33' E 002°38'0 0.0
2018-Aug-07 15:00N 39°33' E 002°38'0 0.0
2018-Aug-07 14:30N 39°33' E 002°38'0 0.0
2018-Aug-07 14:00N 39°33' E 002°38'0 0.0
2018-Aug-07 13:30N 39°33' E 002°38'0 0.0
2018-Aug-07 13:00N 39°33' E 002°38'0 0.0
2018-Aug-07 12:30N 39°33' E 002°38'0 0.0
2018-Aug-07 12:00N 39°33' E 002°38'0 0.0
2018-Aug-07 11:30N 39°33' E 002°38'0 0.0
2018-Aug-07 10:59N 39°33' E 002°38'0 0.0
2018-Aug-07 10:30N 39°33' E 002°38'0 0.0
2018-Aug-07 10:00N 39°33' E 002°38'0 0.0
2018-Aug-07 09:30N 39°33' E 002°38'0 0.0
2018-Aug-07 09:00N 39°33' E 002°38'0 0.0
2018-Aug-07 08:30N 39°33' E 002°38'0 0.0
2018-Aug-07 08:00N 39°33' E 002°38'0 0.0
2018-Aug-07 07:30N 39°33' E 002°38'0 0.0
2018-Aug-07 07:00N 39°33' E 002°38'0 0.8
2018-Aug-07 06:30N 39°33' E 002°38'2 4.2
2018-Aug-07 06:00N 39°31' E 002°38'511.1
2018-Aug-07 05:30N 39°27' E 002°35'610.8
2018-Aug-07 05:00N 39°25' E 002°28'611.2
2018-Aug-07 04:30N 39°28' E 002°22'4011.5
2018-Aug-07 01:01N 40°08' E 002°13'112.1
2018-Aug-07 00:57N 40°09' E 002°13'2110.9
2018-Aug-06 23:04N 40°29' E 002°12'1 8.4
2018-Aug-06 22:57N 40°30' E 002°12'24 8.5
2018-Aug-06 20:06N 40°55' E 002°11'1 9.4
2018-Aug-06 20:00N 40°55' E 002°11'5 9.3
2018-Aug-06 19:30N 41°00' E 002°11'5 9.3
2018-Aug-06 19:00N 41°05' E 002°11'5 9.0
2018-Aug-06 18:30N 41°09' E 002°11'4 9.0
2018-Aug-06 18:00N 41°14' E 002°11'5 9.3
2018-Aug-06 17:30N 41°18' E 002°10'3 5.2
2018-Aug-06 16:59N 41°21' E 002°10'0 0.0
2018-Aug-06 16:29N 41°21' E 002°10'0 0.0
2018-Aug-06 15:59N 41°21' E 002°10'0 0.0
2018-Aug-06 15:29N 41°21' E 002°10'0 0.0
2018-Aug-06 14:59N 41°21' E 002°10'0 0.0
2018-Aug-06 14:29N 41°21' E 002°10'0 0.0
2018-Aug-06 13:59N 41°21' E 002°10'0 0.0
2018-Aug-06 13:29N 41°21' E 002°10'0 0.0
2018-Aug-06 12:59N 41°21' E 002°10'0 0.0
2018-Aug-06 12:29N 41°21' E 002°10'0 0.0
2018-Aug-06 11:59N 41°21' E 002°10'0 0.0
2018-Aug-06 11:29N 41°21' E 002°10'0 0.0
2018-Aug-06 10:59N 41°21' E 002°10'0 0.0
2018-Aug-06 10:29N 41°21' E 002°10'0 0.0
2018-Aug-06 09:59N 41°21' E 002°10'0 0.0
2018-Aug-06 09:29N 41°21' E 002°10'0 0.0
2018-Aug-06 08:59N 41°21' E 002°10'0 0.0
2018-Aug-06 08:29N 41°21' E 002°10'0 0.0
2018-Aug-06 07:59N 41°21' E 002°10'0 0.0
2018-Aug-06 07:29N 41°21' E 002°10'0 0.0
2018-Aug-06 06:59N 41°21' E 002°10'1 1.0
2018-Aug-06 06:30N 41°21' E 002°10'3 5.6
2018-Aug-06 06:00N 41°18' E 002°11'510.2
2018-Aug-06 05:30N 41°16' E 002°17'815.7
2018-Aug-06 05:00N 41°20' E 002°26'714.2
2018-Aug-06 04:30N 41°24' E 002°33'613.0
2018-Aug-06 04:00N 41°28' E 002°40'713.2
2018-Aug-06 03:30N 41°32' E 002°48'713.4
2018-Aug-06 03:00N 41°36' E 002°55'713.7
2018-Aug-06 02:30N 41°40' E 003°03'713.7
2018-Aug-06 02:00N 41°44' E 003°10'713.5
2018-Aug-06 01:30N 41°48' E 003°17'1013.6
2018-Aug-06 00:45N 41°55' E 003°27'314.0
2018-Aug-06 00:30N 41°58' E 003°30'5713.6
2018-Aug-05 20:20N 42°38' E 004°24'412.5
2018-Aug-05 20:01N 42°41' E 004°28'612.4
2018-Aug-05 19:30N 42°45' E 004°34'612.4
2018-Aug-05 19:00N 42°50' E 004°40'612.4
2018-Aug-05 18:30N 42°54' E 004°46'612.5
2018-Aug-05 18:00N 42°58' E 004°52'612.5
2018-Aug-05 17:30N 43°03' E 004°58'612.4
2018-Aug-05 17:00N 43°08' E 005°03'612.2
2018-Aug-05 16:31N 43°13' E 005°07'611.7
2018-Aug-05 16:00N 43°18' E 005°12'510.8
2018-Aug-05 15:30N 43°21' E 005°18'1 2.2
2018-Aug-05 14:59N 43°21' E 005°20'0 0.0
2018-Aug-05 14:29N 43°21' E 005°20'0 0.0
2018-Aug-05 13:29N 43°21' E 005°20'0 0.0
2018-Aug-05 12:59N 43°21' E 005°20'0 0.0
2018-Aug-05 12:29N 43°21' E 005°20'0 0.0
2018-Aug-05 11:59N 43°21' E 005°20'0 0.0
2018-Aug-05 11:29N 43°21' E 005°20'0 0.0
2018-Aug-05 10:56N 43°21' E 005°20'0 0.0
2018-Aug-05 10:26N 43°21' E 005°20'0 0.0
2018-Aug-05 09:56N 43°21' E 005°20'0 0.0
2018-Aug-05 09:29N 43°21' E 005°20'0 0.0
2018-Aug-05 08:59N 43°21' E 005°20'0 0.0
2018-Aug-05 08:29N 43°21' E 005°20'0 0.0
2018-Aug-05 07:59N 43°21' E 005°20'0 0.0
2018-Aug-05 07:29N 43°21' E 005°20'0 0.0
2018-Aug-05 06:59N 43°21' E 005°20'0 0.0
2018-Aug-05 06:29N 43°21' E 005°20'0 0.0
2018-Aug-05 06:01N 43°21' E 005°20'1 3.0
2018-Aug-05 05:31N 43°21' E 005°18'5 9.7
2018-Aug-05 05:00N 43°18' E 005°13'714.0
2018-Aug-05 04:30N 43°11' E 005°12'3717.1
2018-Aug-05 02:19N 42°58' E 006°00'617.6
2018-Aug-05 02:00N 42°57' E 006°08'917.6
2018-Aug-05 01:30N 42°57' E 006°20'1917.2
2018-Aug-05 00:23N 43°03' E 006°45'817.9
2018-Aug-04 23:56N 43°08' E 006°53'817.8
2018-Aug-04 23:30N 43°12' E 007°02'917.4
2018-Aug-04 23:00N 43°18' E 007°11'917.4
2018-Aug-04 22:30N 43°23' E 007°21'917.1
2018-Aug-04 22:00N 43°28' E 007°30'816.8
2018-Aug-04 21:30N 43°33' E 007°39'713.4
2018-Aug-04 21:00N 43°37' E 007°47'713.3
2018-Aug-04 20:30N 43°41' E 007°54'713.1
2018-Aug-04 20:00N 43°45' E 008°01'613.0
2018-Aug-04 19:30N 43°49' E 008°08'612.8
2018-Aug-04 19:00N 43°54' E 008°14'612.5
2018-Aug-04 18:30N 43°59' E 008°18'612.2
2018-Aug-04 18:00N 44°04' E 008°23'612.0
2018-Aug-04 17:30N 44°09' E 008°28'612.0
2018-Aug-04 17:00N 44°15' E 008°31'4 8.7
2018-Aug-04 16:31N 44°19' E 008°30'1 1.8
2018-Aug-04 16:00N 44°19' E 008°29'0 0.0
2018-Aug-04 15:30N 44°19' E 008°29'0 0.0
2018-Aug-04 15:00N 44°19' E 008°29'0 0.0
2018-Aug-04 14:30N 44°19' E 008°29'0 0.0
2018-Aug-04 14:00N 44°19' E 008°29'0 0.0
2018-Aug-04 13:30N 44°19' E 008°29'0 0.0
2018-Aug-04 13:00N 44°19' E 008°29'0 0.0
2018-Aug-04 12:30N 44°19' E 008°29'0 0.0
2018-Aug-04 12:00N 44°19' E 008°29'0 0.0
2018-Aug-04 11:30N 44°19' E 008°29'0 0.0
2018-Aug-04 11:00N 44°19' E 008°29'0 0.0
2018-Aug-04 10:30N 44°19' E 008°29'0 0.0
2018-Aug-04 10:00N 44°19' E 008°29'0 0.0
2018-Aug-04 09:30N 44°19' E 008°29'0 0.0
2018-Aug-04 09:00N 44°19' E 008°29'0 0.0
2018-Aug-04 08:30N 44°19' E 008°29'0 0.0
2018-Aug-04 08:00N 44°19' E 008°29'0 0.0
2018-Aug-04 07:30N 44°19' E 008°29'0 0.0
2018-Aug-04 07:00N 44°19' E 008°29'0 0.0
2018-Aug-04 06:30N 44°19' E 008°29'  

Dump ship's entire track history